Ms Jane — WDE9656 — position and weather

sailwx.info

Track history (hours):
 
Tides and Currents Weather Stations Pressure Air Temp Water Temp Dewpoint Dewpoint Depression Visibility Wind Speed Wind Dir Waves Ship Positions

Ms Jane

Owner: REC Marine, Galliano, LA. More information available from US FCC via Universal Licensing System and Coast Guard Vessel Documentation Center.

Last reported at 2018-Apr-21 12:47 UTC. Time now 2018-Apr-23 05:42 UTC.
Position N 29°48' W 093°20'.

Length 30 m; draft 3.2 m.

Type: Cargo ship. MMSI: 367419770.

Date/timePositionNaut miles runAvg speedWind from/ knotsBaromVisibWave heightAir tempDewpointWater temp
2018-Apr-21 12:47N 29°48' W 093°20'0 0.0
2018-Apr-21 12:27N 29°48' W 093°20'0 0.0
2018-Apr-21 05:38N 29°48' W 093°20'1 3.4
2018-Apr-21 05:18N 29°48' W 093°21'1 3.8
2018-Apr-21 04:58N 29°49' W 093°20'0 0.0
2018-Apr-21 04:30N 29°49' W 093°20'0 0.0
2018-Apr-21 03:57N 29°49' W 093°20'0 0.0
2018-Apr-21 03:30N 29°49' W 093°20'0 0.0
2018-Apr-21 03:00N 29°49' W 093°20'0 0.0
2018-Apr-21 02:29N 29°49' W 093°20'0 0.0
2018-Apr-21 02:00N 29°49' W 093°20'0 0.0
2018-Apr-21 01:30N 29°49' W 093°20'0 0.0
2018-Apr-21 00:46N 29°49' W 093°20'0 0.0
2018-Apr-21 00:23N 29°49' W 093°20'0 0.0
2018-Apr-20 23:52N 29°49' W 093°20'0 0.0
2018-Apr-20 23:28N 29°49' W 093°20'0 0.0
2018-Apr-20 22:59N 29°49' W 093°20'0 0.0
2018-Apr-20 22:25N 29°49' W 093°20'0 0.0
2018-Apr-20 21:46N 29°49' W 093°20'0 0.0
2018-Apr-20 21:28N 29°49' W 093°20'0 0.0
2018-Apr-20 20:57N 29°49' W 093°20'0 0.0
2018-Apr-20 19:51N 29°49' W 093°20'0 0.0
2018-Apr-20 19:31N 29°49' W 093°20'0 0.0
2018-Apr-20 18:59N 29°49' W 093°20'16 0.4
2018-Apr-19 03:36N 29°36' W 093°09'0 0.0
2018-Apr-19 03:11N 29°36' W 093°09'5 0.4
2018-Apr-18 13:44N 29°39' W 093°14'310.6
2018-Apr-18 13:26N 29°41' W 093°18'4 9.9
2018-Apr-18 12:59N 29°45' W 093°20'4 8.1
2018-Apr-18 12:30N 29°48' W 093°21'1 1.9
2018-Apr-18 11:57N 29°49' W 093°20'1 0.2
2018-Apr-18 04:34N 29°48' W 093°21'0 6.6
2018-Apr-18 04:30N 29°48' W 093°21'1 0.5
2018-Apr-18 02:29N 29°49' W 093°20'0 0.0
2018-Apr-18 01:14N 29°49' W 093°20'0 0.0
2018-Apr-18 01:00N 29°49' W 093°20'0 0.0
2018-Apr-18 00:30N 29°49' W 093°20'0 0.0
2018-Apr-17 23:59N 29°49' W 093°20'0 0.0
2018-Apr-17 22:16N 29°49' W 093°20'0 0.0
2018-Apr-17 17:32N 29°49' W 093°20'0 0.0
2018-Apr-17 16:20N 29°49' W 093°20'0 0.0
2018-Apr-17 15:59N 29°49' W 093°20'0 0.0
2018-Apr-17 15:29N 29°49' W 093°20'0 0.1
2018-Apr-17 14:28N 29°49' W 093°20'2 1.6
2018-Apr-17 13:20N 29°48' W 093°19'29 8.3
2018-Apr-17 09:47N 29°29' W 092°53'3 9.2
2018-Apr-17 09:26N 29°28' W 092°50'  
Track history (hours):
 
Tides and Currents Weather Stations Pressure Air Temp Water Temp Dewpoint Dewpoint Depression Visibility Wind Speed Wind Dir Waves Ship Positions

Ms Jane

Owner: REC Marine, Galliano, LA. More information available from US FCC via Universal Licensing System and Coast Guard Vessel Documentation Center.

Last reported at 2018-Apr-21 12:47 UTC. Time now 2018-Apr-23 05:42 UTC.
Position N 29°48' W 093°20'.

Length 30 m; draft 3.2 m.

Type: Cargo ship. MMSI: 367419770.

Date/timePositionNaut miles runAvg speedWind from/ knotsBaromVisibWave heightAir tempDewpointWater temp
2018-Apr-21 12:47N 29°48' W 093°20'0 0.0
2018-Apr-21 12:27N 29°48' W 093°20'0 0.0
2018-Apr-21 05:38N 29°48' W 093°20'1 3.4
2018-Apr-21 05:18N 29°48' W 093°21'1 3.8
2018-Apr-21 04:58N 29°49' W 093°20'0 0.0
2018-Apr-21 04:30N 29°49' W 093°20'0 0.0
2018-Apr-21 03:57N 29°49' W 093°20'0 0.0
2018-Apr-21 03:30N 29°49' W 093°20'0 0.0
2018-Apr-21 03:00N 29°49' W 093°20'0 0.0
2018-Apr-21 02:29N 29°49' W 093°20'0 0.0
2018-Apr-21 02:00N 29°49' W 093°20'0 0.0
2018-Apr-21 01:30N 29°49' W 093°20'0 0.0
2018-Apr-21 00:46N 29°49' W 093°20'0 0.0
2018-Apr-21 00:23N 29°49' W 093°20'0 0.0
2018-Apr-20 23:52N 29°49' W 093°20'0 0.0
2018-Apr-20 23:28N 29°49' W 093°20'0 0.0
2018-Apr-20 22:59N 29°49' W 093°20'0 0.0
2018-Apr-20 22:25N 29°49' W 093°20'0 0.0
2018-Apr-20 21:46N 29°49' W 093°20'0 0.0
2018-Apr-20 21:28N 29°49' W 093°20'0 0.0
2018-Apr-20 20:57N 29°49' W 093°20'0 0.0
2018-Apr-20 19:51N 29°49' W 093°20'0 0.0
2018-Apr-20 19:31N 29°49' W 093°20'0 0.0
2018-Apr-20 18:59N 29°49' W 093°20'16 0.4
2018-Apr-19 03:36N 29°36' W 093°09'0 0.0
2018-Apr-19 03:11N 29°36' W 093°09'5 0.4
2018-Apr-18 13:44N 29°39' W 093°14'310.6
2018-Apr-18 13:26N 29°41' W 093°18'4 9.9
2018-Apr-18 12:59N 29°45' W 093°20'4 8.1
2018-Apr-18 12:30N 29°48' W 093°21'1 1.9
2018-Apr-18 11:57N 29°49' W 093°20'1 0.2
2018-Apr-18 04:34N 29°48' W 093°21'0 6.6
2018-Apr-18 04:30N 29°48' W 093°21'1 0.5
2018-Apr-18 02:29N 29°49' W 093°20'0 0.0
2018-Apr-18 01:14N 29°49' W 093°20'0 0.0
2018-Apr-18 01:00N 29°49' W 093°20'0 0.0
2018-Apr-18 00:30N 29°49' W 093°20'0 0.0
2018-Apr-17 23:59N 29°49' W 093°20'0 0.0
2018-Apr-17 22:16N 29°49' W 093°20'0 0.0
2018-Apr-17 17:32N 29°49' W 093°20'0 0.0
2018-Apr-17 16:20N 29°49' W 093°20'0 0.0
2018-Apr-17 15:59N 29°49' W 093°20'0 0.0
2018-Apr-17 15:29N 29°49' W 093°20'0 0.1
2018-Apr-17 14:28N 29°49' W 093°20'2 1.6
2018-Apr-17 13:20N 29°48' W 093°19'29 8.3
2018-Apr-17 09:47N 29°29' W 092°53'3 9.2
2018-Apr-17 09:26N 29°28' W 092°50'  

Dump ship's entire track history